createdAt,value
2023-09-08T00:01:19.309Z,100318.58
2023-09-08T00:05:18.288Z,100315.36
2023-09-08T00:09:18.276Z,100317.55
2023-09-08T00:13:16.354Z,100316.89
2023-09-08T00:17:14.285Z,100322.70
2023-09-08T00:21:12.278Z,100323.05
2023-09-08T00:25:10.274Z,100324.44
2023-09-08T00:29:08.321Z,100318.66
2023-09-08T00:33:06.320Z,100322.85
2023-09-08T00:37:04.232Z,100319.14
2023-09-08T00:41:02.329Z,100321.63
2023-09-08T00:45:00.310Z,100325.32
2023-09-08T00:48:58.224Z,100317.52
2023-09-08T00:52:56.310Z,100312.67
2023-09-08T00:56:54.221Z,100313.29
2023-09-08T01:00:52.267Z,100312.60
2023-09-08T01:04:50.334Z,100314.04
2023-09-08T01:08:48.277Z,100312.56
2023-09-08T01:12:46.215Z,100309.69
2023-09-08T01:16:45.292Z,100309.71
2023-09-08T01:21:05.225Z,100310.17
2023-09-08T01:25:21.226Z,100311.11
2023-09-08T01:29:21.236Z,100306.83
2023-09-08T01:33:19.215Z,100307.48
2023-09-08T01:37:17.213Z,100305.67
2023-09-08T01:41:15.239Z,100303.24
2023-09-08T01:45:13.242Z,100298.87
2023-09-08T01:49:11.286Z,100298.94
2023-09-08T01:53:09.175Z,100300.55
2023-09-08T01:57:07.276Z,100294.35
2023-09-08T02:01:13.195Z,100289.80
2023-09-08T02:05:11.312Z,100283.89
2023-09-08T02:09:09.192Z,100281.48
2023-09-08T02:13:08.173Z,100278.36
2023-09-08T02:17:06.167Z,100278.23
2023-09-08T02:21:04.289Z,100276.24
2023-09-08T02:25:02.120Z,100279.91
2023-09-08T02:29:00.174Z,100282.27
2023-09-08T02:32:58.209Z,100274.11
2023-09-08T02:36:58.157Z,100267.56
2023-09-08T02:40:56.145Z,100261.31
2023-09-08T02:44:54.125Z,100260.83
2023-09-08T02:49:24.215Z,100255.02
2023-09-08T02:53:22.194Z,100250.18
2023-09-08T02:57:20.116Z,100247.63
2023-09-08T03:01:30.223Z,100248.88
2023-09-08T03:05:30.530Z,100248.88
2023-09-08T03:09:28.094Z,100244.00
2023-09-08T03:13:26.088Z,100245.75
2023-09-08T03:17:24.196Z,100245.13
2023-09-08T03:21:22.099Z,100241.35
2023-09-08T03:25:20.087Z,100240.98
2023-09-08T03:29:18.068Z,100239.60
2023-09-08T03:33:16.310Z,100240.80
2023-09-08T03:37:14.102Z,100240.87
2023-09-08T03:41:14.119Z,100243.42
2023-09-08T03:45:12.049Z,100245.69
2023-09-08T03:49:10.062Z,100247.91
2023-09-08T03:53:08.090Z,100245.00
2023-09-08T03:57:06.077Z,100238.55
2023-09-08T04:01:04.082Z,100237.10
2023-09-08T04:05:02.123Z,100235.52
2023-09-08T04:09:00.117Z,100231.36
2023-09-08T04:12:58.054Z,100230.77
2023-09-08T04:16:56.012Z,100229.80
2023-09-08T04:20:54.137Z,100228.55
2023-09-08T04:24:51.979Z,100230.97
2023-09-08T04:28:50.059Z,100224.61
2023-09-08T04:32:48.033Z,100220.19
2023-09-08T04:36:46.044Z,100226.48
2023-09-08T04:40:44.077Z,100227.83
2023-09-08T04:44:42.015Z,100224.73
2023-09-08T04:48:41.032Z,100228.47
2023-09-08T04:52:39.044Z,100226.56
2023-09-08T04:56:37.085Z,100233.96
2023-09-08T05:00:34.979Z,100229.38
2023-09-08T05:04:34.009Z,100228.42
2023-09-08T05:08:32.076Z,100229.25
2023-09-08T05:12:29.959Z,100222.98
2023-09-08T05:16:34.001Z,100222.59
2023-09-08T05:20:33.962Z,100220.17
2023-09-08T05:24:32.990Z,100221.81
2023-09-08T05:28:31.122Z,100221.38
2023-09-08T05:32:29.092Z,100218.08
2023-09-08T05:36:26.933Z,100219.77
2023-09-08T05:40:25.038Z,100220.77
2023-09-08T05:44:23.036Z,100220.11
2023-09-08T05:48:20.966Z,100226.36
2023-09-08T05:52:19.076Z,100230.70
2023-09-08T05:56:16.997Z,100233.17
2023-09-08T05:59:54.689Z,100237.26
2023-09-08T06:03:19.128Z,100237.41
2023-09-08T06:06:43.535Z,100234.48
2023-09-08T06:10:07.910Z,100228.02
2023-09-08T06:13:31.966Z,100224.36
2023-09-08T06:16:56.097Z,100224.89
2023-09-08T06:20:20.313Z,100220.98
2023-09-08T06:23:44.647Z,100220.18
2023-09-08T06:27:10.533Z,100222.97
2023-09-08T06:30:34.469Z,100226.12
2023-09-08T06:33:59.490Z,100228.57
2023-09-08T06:37:24.066Z,100234.15
2023-09-08T06:40:50.722Z,100231.27
2023-09-08T06:44:14.745Z,100229.58
2023-09-08T06:47:38.967Z,100228.20
2023-09-08T06:51:03.212Z,100229.00
2023-09-08T06:54:27.320Z,100220.42
2023-09-08T06:57:51.296Z,100221.30
2023-09-08T07:01:15.435Z,100222.23
2023-09-08T07:04:39.715Z,100226.13
2023-09-08T07:08:04.301Z,100225.69
2023-09-08T07:11:28.613Z,100229.67
2023-09-08T07:14:52.573Z,100223.36
2023-09-08T07:18:16.634Z,100224.27
2023-09-08T07:21:41.036Z,100225.45
2023-09-08T07:25:05.361Z,100225.55
2023-09-08T07:28:29.978Z,100228.24
2023-09-08T07:31:55.708Z,100226.27
2023-09-08T07:35:21.399Z,100227.28
2023-09-08T07:38:45.525Z,100229.40
2023-09-08T07:42:10.075Z,100232.32
2023-09-08T07:45:34.278Z,100230.55
2023-09-08T07:49:00.868Z,100234.06
2023-09-08T07:52:24.903Z,100232.58
2023-09-08T07:55:48.775Z,100228.79
2023-09-08T07:59:12.774Z,100224.18
2023-09-08T08:02:36.617Z,100215.68
2023-09-08T08:06:00.580Z,100215.35
2023-09-08T08:09:24.499Z,100218.09
2023-09-08T08:12:48.715Z,100220.07
2023-09-08T08:16:13.438Z,100223.39
2023-09-08T08:19:37.374Z,100214.81
2023-09-08T08:23:01.470Z,100215.93
2023-09-08T08:26:28.768Z,100216.02
2023-09-08T08:29:53.094Z,100216.01
2023-09-08T08:33:17.018Z,100217.53
2023-09-08T08:36:40.952Z,100221.52
2023-09-08T08:40:05.308Z,100221.05
2023-09-08T08:43:30.445Z,100218.04
2023-09-08T08:46:56.607Z,100217.23
2023-09-08T08:50:21.679Z,100214.31
2023-09-08T08:53:45.629Z,100212.70
2023-09-08T08:57:09.953Z,100216.06
2023-09-08T09:00:38.171Z,100217.13
2023-09-08T09:04:02.377Z,100211.60
2023-09-08T09:07:26.855Z,100209.58
2023-09-08T09:10:50.715Z,100206.04
2023-09-08T09:14:14.648Z,100201.20
2023-09-08T09:17:38.701Z,100202.30
2023-09-08T09:21:04.019Z,100198.11
2023-09-08T09:24:39.736Z,100191.64
2023-09-08T09:28:05.091Z,100192.67
2023-09-08T09:31:28.967Z,100188.66
2023-09-08T09:34:55.014Z,100184.55
2023-09-08T09:38:19.697Z,100174.94
2023-09-08T09:41:43.875Z,100175.38
2023-09-08T09:45:08.949Z,100180.16
2023-09-08T09:48:33.097Z,100176.27
2023-09-08T09:51:57.154Z,100171.88
2023-09-08T09:55:21.942Z,100172.00
2023-09-08T09:58:46.244Z,100169.30
2023-09-08T10:02:15.546Z,100172.18
2023-09-08T10:05:39.636Z,100171.85
2023-09-08T10:09:06.862Z,100163.88
2023-09-08T10:12:33.295Z,100166.84
2023-09-08T10:16:01.074Z,100161.56
2023-09-08T10:19:25.624Z,100160.86
2023-09-08T10:23:12.270Z,100162.27
2023-09-08T10:26:37.937Z,100151.92
2023-09-08T10:30:08.868Z,100152.63
2023-09-08T10:33:33.849Z,100153.61
2023-09-08T10:36:58.231Z,100150.41
2023-09-08T10:40:28.529Z,100140.31
2023-09-08T10:44:01.522Z,100136.95
2023-09-08T10:47:28.126Z,100131.72
2023-09-08T10:50:51.971Z,100128.87
2023-09-08T10:54:45.370Z,100133.29
2023-09-08T10:58:11.743Z,100123.59
2023-09-08T11:01:37.604Z,100127.23
2023-09-08T11:05:01.546Z,100123.98
2023-09-08T11:08:27.264Z,100122.39
2023-09-08T11:11:52.768Z,100118.54
2023-09-08T11:15:16.622Z,100116.92
2023-09-08T11:18:42.015Z,100113.71
2023-09-08T11:22:06.059Z,100109.41
2023-09-08T11:25:30.731Z,100108.16
2023-09-08T11:28:54.827Z,100109.14
2023-09-08T11:32:18.796Z,100109.64
2023-09-08T11:35:44.629Z,100104.27
2023-09-08T11:39:09.280Z,100103.55
2023-09-08T11:42:33.183Z,100099.04
2023-09-08T11:45:58.059Z,100096.54
2023-09-08T11:49:24.031Z,100096.76
2023-09-08T11:52:52.654Z,100088.17
2023-09-08T11:56:16.919Z,100080.37
2023-09-08T11:59:41.385Z,100077.88
2023-09-08T12:03:12.253Z,100078.78
2023-09-08T12:06:36.286Z,100067.91
2023-09-08T12:10:00.532Z,100064.89
2023-09-08T12:13:25.583Z,100070.02
2023-09-08T12:16:49.486Z,100066.97
2023-09-08T12:20:17.589Z,100064.67
2023-09-08T12:23:52.377Z,100059.08
2023-09-08T12:27:16.733Z,100053.19
2023-09-08T12:30:41.076Z,100052.86
2023-09-08T12:34:04.965Z,100050.88
2023-09-08T12:37:30.233Z,100040.29
2023-09-08T12:40:54.144Z,100034.21
2023-09-08T12:44:18.165Z,100029.52
2023-09-08T12:47:44.326Z,100029.45
2023-09-08T12:51:08.249Z,100026.54
2023-09-08T12:54:32.220Z,100024.45
2023-09-08T12:57:56.671Z,100023.10
2023-09-08T13:01:20.573Z,100029.23
2023-09-08T13:04:49.521Z,100024.23
2023-09-08T13:08:16.395Z,100025.70
2023-09-08T13:11:40.323Z,100019.69
2023-09-08T13:15:04.442Z,100016.26
2023-09-08T13:18:28.509Z,100012.55
2023-09-08T13:21:52.546Z,100008.46
2023-09-08T13:25:16.426Z,100002.82
2023-09-08T13:28:40.325Z,100001.40
2023-09-08T13:32:24.614Z,99996.48
2023-09-08T13:36:22.613Z,99995.98
2023-09-08T13:40:20.630Z,99991.24
2023-09-08T13:44:18.624Z,99983.90
2023-09-08T13:48:17.124Z,99982.24
2023-09-08T13:52:18.878Z,99980.40
2023-09-08T13:56:20.537Z,99987.30
2023-09-08T14:00:23.741Z,99979.53
2023-09-08T14:08:28.436Z,99971.28
2023-09-08T14:12:33.987Z,99969.50
2023-09-08T14:16:34.598Z,99969.44
2023-09-08T14:20:32.835Z,99966.54
2023-09-08T14:24:30.673Z,99959.16
2023-09-08T14:28:28.485Z,99952.33
2023-09-08T14:32:26.537Z,99945.48
2023-09-08T14:36:24.483Z,99941.04
2023-09-08T14:40:22.527Z,99937.92
2023-09-08T14:44:23.536Z,99930.94
2023-09-08T14:48:21.718Z,99934.27
2023-09-08T14:52:19.550Z,99929.65
2023-09-08T14:56:17.480Z,99931.38
2023-09-08T15:00:15.671Z,99927.30
2023-09-08T15:04:13.633Z,99921.25
2023-09-08T15:08:11.511Z,99917.52
2023-09-08T15:12:09.498Z,99912.49
2023-09-08T15:16:07.534Z,99910.27
2023-09-08T15:20:06.561Z,99912.56
2023-09-08T15:24:04.499Z,99906.64
2023-09-08T15:28:02.487Z,99900.98
2023-09-08T15:32:00.500Z,99902.01
2023-09-08T15:35:58.539Z,99908.17
2023-09-08T15:39:56.453Z,99907.59
2023-09-08T15:43:55.513Z,99902.14
2023-09-08T15:47:53.498Z,99905.25
2023-09-08T15:52:04.367Z,99898.66
2023-09-08T15:56:11.511Z,99896.55
2023-09-08T16:00:09.514Z,99892.77
2023-09-08T16:04:08.936Z,99890.33
2023-09-08T16:08:06.419Z,99890.05
2023-09-08T16:12:04.425Z,99880.57
2023-09-08T16:16:02.491Z,99878.66
2023-09-08T16:20:00.445Z,99876.48
2023-09-08T16:23:58.497Z,99873.22
2023-09-08T16:27:56.429Z,99872.34
2023-09-08T16:31:54.604Z,99868.77
2023-09-08T16:35:52.433Z,99872.98
2023-09-08T16:39:50.441Z,99876.50
2023-09-08T16:43:48.442Z,99872.66
2023-09-08T16:47:46.558Z,99871.73
2023-09-08T16:51:44.478Z,99872.55
2023-09-08T16:55:42.440Z,99869.55
2023-09-08T16:59:40.439Z,99873.73
2023-09-08T17:03:38.838Z,99874.99
2023-09-08T17:07:37.408Z,99874.16
2023-09-08T17:11:35.679Z,99877.77
2023-09-08T17:15:33.363Z,99879.13
2023-09-08T17:19:31.384Z,99882.51
2023-09-08T17:23:34.195Z,99890.61
2023-09-08T17:27:32.550Z,99888.58
2023-09-08T17:31:30.371Z,99892.42
2023-09-08T17:35:28.402Z,99890.41
2023-09-08T17:39:26.380Z,99890.58
2023-09-08T17:43:24.370Z,99891.30
2023-09-08T17:47:22.329Z,99889.97
2023-09-08T17:51:20.525Z,99891.52
2023-09-08T17:55:18.324Z,99893.59
2023-09-08T17:59:16.381Z,99895.49
2023-09-08T18:03:16.261Z,99892.79
2023-09-08T18:07:15.528Z,99891.30
2023-09-08T18:11:17.328Z,99889.63
2023-09-08T18:15:15.370Z,99887.11
2023-09-08T18:19:13.633Z,99885.66
2023-09-08T18:23:11.330Z,99887.59
2023-09-08T18:27:09.316Z,99887.48
2023-09-08T18:31:07.371Z,99890.10
2023-09-08T18:35:05.378Z,99889.67
2023-09-08T18:39:03.318Z,99890.94
2023-09-08T18:43:01.248Z,99891.75
2023-09-08T18:46:59.392Z,99889.94
2023-09-08T18:50:57.305Z,99885.27
2023-09-08T18:54:55.382Z,99884.27
2023-09-08T18:58:53.259Z,99879.96
2023-09-08T19:02:51.519Z,99877.26
2023-09-08T19:06:50.267Z,99876.91
2023-09-08T19:10:48.311Z,99877.91
2023-09-08T19:14:46.301Z,99878.33
2023-09-08T19:18:44.321Z,99876.69
2023-09-08T19:22:42.268Z,99881.44
2023-09-08T19:26:40.277Z,99880.46
2023-09-08T19:30:38.253Z,99878.08
2023-09-08T19:34:36.281Z,99871.44
2023-09-08T19:38:34.251Z,99872.16
2023-09-08T19:42:32.293Z,99866.96
2023-09-08T19:46:30.268Z,99867.42
2023-09-08T19:50:28.324Z,99866.69
2023-09-08T19:54:26.221Z,99867.27
2023-09-08T19:58:24.356Z,99868.08
2023-09-08T20:02:23.228Z,99868.23
2023-09-08T20:06:21.260Z,99864.27
2023-09-08T20:10:19.255Z,99870.02
2023-09-08T20:14:17.229Z,99870.91
2023-09-08T20:18:15.286Z,99865.98
2023-09-08T20:22:13.212Z,99866.54
2023-09-08T20:26:11.210Z,99864.83
2023-09-08T20:30:09.236Z,99862.09
2023-09-08T20:34:07.199Z,99858.64
2023-09-08T20:38:05.317Z,99859.52
2023-09-08T20:42:03.211Z,99858.80
2023-09-08T20:46:09.299Z,99858.74
2023-09-08T20:50:07.208Z,99862.30
2023-09-08T20:54:05.210Z,99861.39
2023-09-08T20:58:03.157Z,99862.09
2023-09-08T21:02:04.148Z,99860.27
2023-09-08T21:06:02.188Z,99857.30
2023-09-08T21:10:00.285Z,99858.22
2023-09-08T21:13:58.110Z,99859.19
2023-09-08T21:17:56.198Z,99861.33
2023-09-08T21:21:54.214Z,99861.48
2023-09-08T21:25:52.199Z,99861.54
2023-09-08T21:29:50.165Z,99859.55
2023-09-08T21:33:51.012Z,99860.35
2023-09-08T21:37:49.106Z,99862.78
2023-09-08T21:41:47.142Z,99854.88
2023-09-08T21:45:45.138Z,99859.10
2023-09-08T21:49:43.216Z,99860.84
2023-09-08T21:53:41.137Z,99860.66
2023-09-08T21:57:40.099Z,99857.61
2023-09-08T22:01:38.125Z,99861.95
2023-09-08T22:05:36.151Z,99859.06
2023-09-08T22:09:41.063Z,99858.34
2023-09-08T22:13:39.130Z,99856.40
2023-09-08T22:17:37.111Z,99861.27
2023-09-08T22:21:35.105Z,99858.34
2023-09-08T22:25:33.065Z,99852.58
2023-09-08T22:29:31.100Z,99855.85
2023-09-08T22:33:29.179Z,99856.16
2023-09-08T22:37:27.095Z,99852.23
2023-09-08T22:41:25.019Z,99847.17
2023-09-08T22:45:23.098Z,99845.42
2023-09-08T22:49:42.073Z,99840.95
2023-09-08T22:53:40.247Z,99835.63
2023-09-08T22:57:38.065Z,99838.93
2023-09-08T23:01:36.140Z,99833.40
2023-09-08T23:05:34.031Z,99835.06
2023-09-08T23:09:32.079Z,99832.83
2023-09-08T23:13:30.044Z,99825.35
2023-09-08T23:17:28.141Z,99816.23
2023-09-08T23:21:26.064Z,99819.77
2023-09-08T23:25:24.050Z,99820.36
2023-09-08T23:29:22.061Z,99819.58
2023-09-08T23:33:20.100Z,99824.14
2023-09-08T23:37:18.019Z,99827.09
2023-09-08T23:41:16.066Z,99825.55
2023-09-08T23:45:13.982Z,99822.39
2023-09-08T23:49:12.008Z,99821.95
2023-09-08T23:53:09.991Z,99825.60
2023-09-08T23:57:12.102Z,99827.21
